Alma, Missouri
Current Conditions -  °F | °C
As of 5:58 PM on Wednesday 22 Oct 2014 (Local Time) from KSZL Reporting Station
Few Clouds Few Clouds  
Wind Chill: 65°   Ceiling: Unl
Heat Index: 65°   Visibility: 10mi
Dew Point: 49°   Wind: 6mph
Humidity: 55%   Direction: 130°SE
Pressure: 30.13"   Gusts: NA
Location:  39.1°N, 93.55°W
Report Text: KSZL 222258Z 13005KT 10SM FEW070 19/10 A3013 RMK AO2A SLP205 T01860095 $
Loading
Personal Weather Stations






























Interactive Weather Map New forecast layout! Learn more

10-Day Weather Forecast

Advertisements
Track Severe Weather on mobile